createdAt,value
2022-08-09T00:29:39.463Z,20.14
2022-08-09T00:59:52.331Z,19.75
2022-08-09T01:29:59.350Z,19.35
2022-08-09T02:00:09.039Z,19.13
2022-08-09T02:30:33.424Z,18.84
2022-08-09T03:00:39.396Z,18.61
2022-08-09T03:30:52.239Z,18.27
2022-08-09T04:00:56.715Z,17.99
2022-08-09T04:31:00.966Z,17.77
2022-08-09T05:01:16.364Z,18.08
2022-08-09T05:31:23.573Z,18.52
2022-08-09T06:01:47.248Z,18.82
2022-08-09T06:32:17.216Z,19.14
2022-08-09T07:02:16.932Z,19.86
2022-08-09T07:32:21.063Z,20.69
2022-08-09T08:02:27.271Z,21.80
2022-08-09T08:32:31.990Z,24.33
2022-08-09T09:02:38.037Z,28.92
2022-08-09T09:32:42.563Z,32.44
2022-08-09T10:02:47.673Z,34.42
2022-08-09T10:32:55.073Z,33.77
2022-08-09T11:03:15.673Z,35.07
2022-08-09T11:33:39.971Z,36.26
2022-08-09T12:03:55.640Z,36.49
2022-08-09T12:34:01.842Z,36.82
2022-08-09T13:04:07.913Z,37.32
2022-08-09T13:34:34.861Z,36.27
2022-08-09T14:04:39.345Z,36.05
2022-08-09T14:34:55.914Z,35.81
2022-08-09T15:05:01.092Z,35.04
2022-08-09T15:35:18.169Z,32.53
2022-08-09T16:05:47.466Z,32.45
2022-08-09T16:36:00.693Z,32.00
2022-08-09T17:06:28.840Z,30.26
2022-08-09T17:36:31.666Z,28.68
2022-08-09T18:06:35.980Z,27.71
2022-08-09T18:36:40.201Z,26.68
2022-08-09T19:06:51.029Z,26.08
2022-08-09T19:36:57.372Z,25.30
2022-08-09T20:07:04.089Z,24.67
2022-08-09T20:37:08.680Z,24.06
2022-08-09T21:07:14.426Z,23.64
2022-08-09T21:37:18.734Z,23.07
2022-08-09T22:07:23.380Z,22.72
2022-08-09T22:37:44.036Z,22.37
2022-08-09T23:08:22.225Z,22.08
2022-08-09T23:38:30.146Z,21.69
